createdAt,value
2019-05-21T00:01:03.681Z,14.60
2019-05-21T00:04:00.134Z,14.60
2019-05-21T00:06:45.676Z,14.50
2019-05-21T00:09:18.459Z,14.50
2019-05-21T00:11:54.808Z,14.50
2019-05-21T00:14:49.991Z,14.50
2019-05-21T00:17:30.556Z,14.50
2019-05-21T00:20:24.336Z,14.50
2019-05-21T00:23:15.748Z,14.50
2019-05-21T00:25:49.672Z,14.40
2019-05-21T00:28:43.389Z,14.40
2019-05-21T00:31:59.558Z,14.30
2019-05-21T00:35:17.609Z,14.30
2019-05-21T00:38:34.417Z,14.30
2019-05-21T00:41:51.190Z,14.30
2019-05-21T00:44:30.320Z,14.40
2019-05-21T00:47:07.038Z,14.30
2019-05-21T00:49:37.964Z,14.20
2019-05-21T00:52:14.744Z,14.20
2019-05-21T00:54:58.319Z,14.20
2019-05-21T00:57:32.481Z,14.10
2019-05-21T01:00:22.237Z,14.10
2019-05-21T01:02:59.179Z,14.10
2019-05-21T01:05:34.560Z,14.20
2019-05-21T01:08:14.631Z,14.20
2019-05-21T01:10:56.139Z,14.20
2019-05-21T01:13:37.053Z,14.20
2019-05-21T01:16:14.670Z,14.20
2019-05-21T01:18:56.339Z,14.20
2019-05-21T01:21:35.122Z,14.20
2019-05-21T01:24:07.768Z,14.30
2019-05-21T01:26:44.033Z,14.20
2019-05-21T01:29:20.998Z,14.20
2019-05-21T01:31:55.281Z,14.20
2019-05-21T01:34:28.444Z,14.20
2019-05-21T01:37:04.767Z,14.20
2019-05-21T01:39:42.174Z,14.10
2019-05-21T01:42:21.131Z,14.10
2019-05-21T01:45:04.123Z,14.10
2019-05-21T01:47:39.869Z,14.10
2019-05-21T01:50:23.292Z,14.10
2019-05-21T01:52:54.550Z,14.00
2019-05-21T01:55:43.978Z,14.00
2019-05-21T01:58:21.546Z,14.10
2019-05-21T02:01:01.983Z,14.10
2019-05-21T02:03:46.365Z,14.10
2019-05-21T02:06:21.554Z,14.10
2019-05-21T02:08:53.342Z,14.00
2019-05-21T02:11:34.973Z,14.00
2019-05-21T02:14:13.106Z,14.10
2019-05-21T02:16:44.136Z,14.10
2019-05-21T02:19:21.416Z,14.10
2019-05-21T02:22:05.898Z,14.00
2019-05-21T02:24:47.518Z,14.00
2019-05-21T02:27:23.863Z,14.30
2019-05-21T02:30:06.075Z,14.10
2019-05-21T02:32:43.803Z,14.10
2019-05-21T02:35:21.486Z,14.10
2019-05-21T02:38:03.690Z,14.10
2019-05-21T02:40:38.994Z,14.20
2019-05-21T02:43:10.435Z,14.10
2019-05-21T02:45:42.082Z,14.10
2019-05-21T02:48:19.327Z,14.10
2019-05-21T02:50:59.227Z,14.00
2019-05-21T02:53:39.524Z,14.00
2019-05-21T02:56:17.815Z,14.10
2019-05-21T02:58:54.447Z,14.00
2019-05-21T03:01:52.562Z,14.10
2019-05-21T03:04:25.828Z,14.00
2019-05-21T03:07:19.036Z,14.00
2019-05-21T03:09:59.318Z,14.00
2019-05-21T03:13:02.960Z,14.00
2019-05-21T03:15:38.260Z,14.00
2019-05-21T03:18:14.272Z,14.10
2019-05-21T03:20:50.748Z,14.10
2019-05-21T03:23:23.069Z,14.00
2019-05-21T03:25:57.981Z,14.00
2019-05-21T03:28:34.266Z,14.00
2019-05-21T03:31:14.527Z,14.00
2019-05-21T03:33:48.242Z,14.00
2019-05-21T03:36:33.231Z,14.00
2019-05-21T03:39:10.682Z,14.00
2019-05-21T03:41:46.326Z,14.00
2019-05-21T03:44:30.238Z,14.10
2019-05-21T03:47:11.158Z,14.10
2019-05-21T03:49:46.455Z,14.10
2019-05-21T03:52:31.623Z,14.10
2019-05-21T03:55:19.109Z,14.30
2019-05-21T03:58:01.907Z,14.10
2019-05-21T04:00:36.536Z,14.10
2019-05-21T04:03:21.351Z,14.00
2019-05-21T04:06:07.308Z,14.00
2019-05-21T04:08:43.637Z,14.00
2019-05-21T04:11:17.703Z,14.00
2019-05-21T04:13:57.065Z,13.90
2019-05-21T04:16:38.653Z,13.90
2019-05-21T04:19:19.385Z,13.90
2019-05-21T04:21:50.820Z,14.00
2019-05-21T04:24:31.430Z,14.00
2019-05-21T04:27:07.913Z,14.00
2019-05-21T04:29:45.163Z,14.00
2019-05-21T04:32:47.315Z,14.00
2019-05-21T04:35:46.817Z,14.00
2019-05-21T04:38:25.324Z,14.00
2019-05-21T04:42:07.362Z,14.00
2019-05-21T04:53:16.279Z,15.70
2019-05-21T04:56:23.449Z,14.70
2019-05-21T05:02:53.740Z,13.80
2019-05-21T05:05:56.939Z,13.70
2019-05-21T05:08:41.516Z,13.60
2019-05-21T05:11:50.909Z,13.50
2019-05-21T05:14:46.297Z,13.50
2019-05-21T05:17:20.474Z,13.50
2019-05-21T05:24:00.027Z,13.50
2019-05-21T05:34:56.673Z,13.50
2019-05-21T05:37:44.482Z,13.50
2019-05-21T05:41:40.830Z,13.60
2019-05-21T05:59:53.797Z,13.60
2019-05-21T06:03:07.198Z,13.60
2019-05-21T06:06:15.302Z,13.60
2019-05-21T06:09:00.433Z,13.60
2019-05-21T06:11:55.028Z,13.60
2019-05-21T06:14:44.727Z,13.50
2019-05-21T06:17:55.431Z,13.50
2019-05-21T06:20:39.219Z,13.80
2019-05-21T06:23:30.245Z,14.20
2019-05-21T06:26:28.565Z,14.10
2019-05-21T06:29:08.403Z,13.90
2019-05-21T06:31:55.472Z,13.80
2019-05-21T06:34:48.754Z,13.80
2019-05-21T06:37:41.591Z,13.80
2019-05-21T06:40:53.461Z,13.70
2019-05-21T06:44:15.123Z,13.70
2019-05-21T06:47:44.409Z,13.60
2019-05-21T06:50:37.546Z,13.90
2019-05-21T06:54:02.849Z,14.60
2019-05-21T06:57:15.570Z,14.20
2019-05-21T07:00:36.190Z,14.00
2019-05-21T08:11:29.950Z,13.80
2019-05-21T08:15:08.899Z,13.70
2019-05-21T08:18:00.597Z,13.70
2019-05-21T08:21:10.030Z,13.70
2019-05-21T08:28:30.534Z,13.60
2019-05-21T08:31:02.545Z,13.60
2019-05-21T08:34:26.687Z,13.50
2019-05-21T08:37:31.583Z,13.50
2019-05-21T08:47:30.742Z,13.40
2019-05-21T08:50:18.053Z,13.40
2019-05-21T08:53:37.607Z,13.40
2019-05-21T08:56:51.025Z,13.40
2019-05-21T08:59:52.248Z,13.50
2019-05-21T09:03:10.553Z,13.60
2019-05-21T09:06:31.547Z,13.60
2019-05-21T09:09:21.020Z,13.60
2019-05-21T09:12:34.482Z,13.50
2019-05-21T09:15:40.209Z,13.60
2019-05-21T09:18:41.618Z,13.60
2019-05-21T09:21:46.155Z,13.60
2019-05-21T09:25:17.100Z,13.60
2019-05-21T09:28:29.049Z,13.60
2019-05-21T09:31:58.802Z,13.50
2019-05-21T09:35:02.757Z,13.50
2019-05-21T09:41:47.700Z,13.60
2019-05-21T09:45:28.627Z,13.70
2019-05-21T09:48:34.209Z,13.70
2019-05-21T09:55:17.080Z,13.80
2019-05-21T09:58:27.023Z,13.70
2019-05-21T10:01:47.940Z,13.70
2019-05-21T10:09:01.906Z,13.80
2019-05-21T10:12:01.786Z,13.90
2019-05-21T10:18:16.405Z,13.90
2019-05-21T10:25:05.449Z,14.20
2019-05-21T10:31:11.959Z,13.90
2019-05-21T10:34:42.369Z,14.00
2019-05-21T10:38:20.999Z,14.00
2019-05-21T10:41:41.704Z,14.00
2019-05-21T10:44:59.401Z,13.90
2019-05-21T10:48:10.410Z,14.00
2019-05-21T10:51:19.158Z,14.00
2019-05-21T11:05:31.771Z,14.00
2019-05-21T11:08:23.926Z,14.00
2019-05-21T11:11:44.925Z,13.90
2019-05-21T11:14:40.077Z,13.90
2019-05-21T11:18:10.463Z,13.90
2019-05-21T11:24:29.536Z,14.00
2019-05-21T11:36:04.215Z,14.10
2019-05-21T11:42:23.496Z,14.20
2019-05-21T11:46:09.836Z,14.20
2019-05-21T11:52:43.658Z,14.20
2019-05-21T11:56:01.642Z,14.20
2019-05-21T12:02:46.805Z,14.30
2019-05-21T12:06:33.209Z,14.30
2019-05-21T12:13:27.064Z,14.20
2019-05-21T12:17:13.196Z,14.20
2019-05-21T12:20:36.917Z,14.20
2019-05-21T12:24:18.334Z,14.20
2019-05-21T12:27:46.999Z,14.30
2019-05-21T12:30:47.516Z,14.30
2019-05-21T12:34:26.074Z,14.30
2019-05-21T12:37:21.610Z,14.30
2019-05-21T12:49:29.204Z,14.20
2019-05-21T12:52:18.548Z,14.30
2019-05-21T12:55:35.163Z,14.30
2019-05-21T12:58:25.216Z,14.30
2019-05-21T13:01:54.160Z,14.30
2019-05-21T13:05:06.457Z,14.40
2019-05-21T13:08:43.501Z,14.40
2019-05-21T13:12:30.428Z,14.40
2019-05-21T13:19:47.338Z,14.50
2019-05-21T13:23:43.618Z,14.50
2019-05-21T13:30:53.226Z,14.50
2019-05-21T13:34:23.321Z,14.50
2019-05-21T13:37:59.207Z,14.50
2019-05-21T13:41:16.117Z,14.50
2019-05-21T13:44:37.507Z,14.40
2019-05-21T13:47:58.574Z,14.40
2019-05-21T13:51:13.017Z,14.30
2019-05-21T13:58:42.684Z,14.20
2019-05-21T14:01:55.217Z,14.30
2019-05-21T14:08:13.571Z,14.40
2019-05-21T14:11:59.480Z,14.30
2019-05-21T14:15:07.653Z,14.30
2019-05-21T14:41:57.488Z,14.10
2019-05-21T14:44:44.929Z,14.10
2019-05-21T14:51:34.026Z,14.20
2019-05-21T14:54:59.687Z,14.20
2019-05-21T14:57:58.842Z,14.10
2019-05-21T15:05:26.781Z,14.20
2019-05-21T15:09:05.779Z,14.20
2019-05-21T15:16:17.527Z,14.20
2019-05-21T15:19:45.618Z,13.90
2019-05-21T15:34:01.319Z,14.20
2019-05-21T15:37:58.364Z,14.10
2019-05-21T15:41:12.341Z,14.00
2019-05-21T15:47:31.799Z,14.00
2019-05-21T15:50:31.727Z,14.10
2019-05-21T15:53:56.959Z,14.10
2019-05-21T16:01:26.095Z,13.90
2019-05-21T16:23:31.854Z,13.70
2019-05-21T16:34:31.906Z,13.80
2019-05-21T16:37:57.724Z,13.80
2019-05-21T16:40:37.726Z,13.80
2019-05-21T16:43:28.351Z,13.80
2019-05-21T16:55:08.576Z,13.80
2019-05-21T16:57:56.728Z,13.70
2019-05-21T17:00:54.702Z,13.80
2019-05-21T17:04:00.367Z,13.80
2019-05-21T17:06:52.703Z,13.80
2019-05-21T17:10:15.144Z,13.80
2019-05-21T17:13:50.133Z,13.80
2019-05-21T17:16:52.315Z,13.80
2019-05-21T17:27:28.897Z,13.80
2019-05-21T17:30:39.779Z,13.80
2019-05-21T17:33:48.672Z,13.80
2019-05-21T17:36:37.464Z,13.70
2019-05-21T17:39:46.390Z,13.70
2019-05-21T17:42:41.058Z,13.70
2019-05-21T17:46:05.879Z,13.70
2019-05-21T17:53:08.786Z,13.80
2019-05-21T18:03:47.274Z,14.00
2019-05-21T18:10:33.222Z,13.70
2019-05-21T18:20:46.076Z,13.60
2019-05-21T18:23:46.312Z,13.60
2019-05-21T18:30:37.884Z,13.60
2019-05-21T18:41:54.017Z,13.50
2019-05-21T18:45:44.263Z,13.50
2019-05-21T18:48:28.018Z,13.50
2019-05-21T18:55:03.253Z,13.40
2019-05-21T18:57:52.293Z,13.40
2019-05-21T19:08:11.136Z,13.30
2019-05-21T19:11:56.066Z,13.30
2019-05-21T19:15:32.367Z,13.30
2019-05-21T19:18:54.741Z,13.70
2019-05-21T19:22:07.186Z,14.70
2019-05-21T19:27:43.188Z,15.70
2019-05-21T19:34:07.539Z,16.90
2019-05-21T19:36:45.277Z,17.10
2019-05-21T19:43:21.282Z,17.10
2019-05-21T19:47:12.172Z,17.30
2019-05-21T19:49:55.024Z,16.70
2019-05-21T19:53:39.897Z,15.60
2019-05-21T19:57:21.873Z,15.00
2019-05-21T20:04:15.032Z,14.30
2019-05-21T20:07:09.090Z,14.10
2019-05-21T20:10:34.285Z,14.20
2019-05-21T20:14:03.045Z,14.10
2019-05-21T20:18:07.113Z,14.10
2019-05-21T20:20:58.753Z,14.00
2019-05-21T20:23:50.546Z,13.90
2019-05-21T20:35:12.778Z,13.70
2019-05-21T20:38:23.299Z,14.40
2019-05-21T20:41:13.077Z,14.70
2019-05-21T20:44:27.564Z,15.40
2019-05-21T20:47:59.965Z,15.60
2019-05-21T20:51:26.012Z,15.80
2019-05-21T21:04:42.476Z,14.50
2019-05-21T21:15:15.556Z,13.70
2019-05-21T21:18:06.959Z,13.60
2019-05-21T21:21:22.301Z,13.50
2019-05-21T21:24:04.543Z,13.50
2019-05-21T21:27:44.891Z,13.40
2019-05-21T21:31:01.580Z,13.30
2019-05-21T21:37:47.241Z,13.20
2019-05-21T21:41:00.915Z,13.20
2019-05-21T21:44:33.486Z,13.20
2019-05-21T21:51:36.670Z,13.20
2019-05-21T21:54:47.337Z,13.20
2019-05-21T22:01:32.218Z,13.60
2019-05-21T22:04:35.081Z,13.20
2019-05-21T22:07:25.071Z,13.10
2019-05-21T22:10:25.912Z,13.10
2019-05-21T22:13:41.062Z,13.10
2019-05-21T22:16:42.535Z,13.10
2019-05-21T22:20:06.389Z,13.10
2019-05-21T22:23:24.144Z,13.10
2019-05-21T22:26:43.800Z,13.00
2019-05-21T22:29:22.795Z,13.10
2019-05-21T22:31:55.229Z,13.00
2019-05-21T22:34:27.165Z,13.00
2019-05-21T22:37:13.122Z,13.00
2019-05-21T22:39:39.972Z,13.00
2019-05-21T22:42:26.212Z,13.00
2019-05-21T22:45:21.163Z,13.00
2019-05-21T22:47:54.496Z,13.00
2019-05-21T22:50:39.291Z,13.00
2019-05-21T22:53:19.098Z,13.00
2019-05-21T22:56:09.119Z,12.90
2019-05-21T22:59:05.626Z,13.00
2019-05-21T23:01:52.951Z,13.00
2019-05-21T23:08:21.169Z,13.00
2019-05-21T23:11:13.704Z,13.00
2019-05-21T23:14:06.035Z,13.00
2019-05-21T23:16:51.444Z,13.00
2019-05-21T23:19:48.833Z,13.00
2019-05-21T23:22:33.040Z,13.00
2019-05-21T23:28:21.076Z,12.90
2019-05-21T23:31:00.574Z,13.00
2019-05-21T23:33:54.621Z,13.00
2019-05-21T23:36:39.698Z,13.00
2019-05-21T23:39:16.050Z,13.00
2019-05-21T23:42:29.391Z,13.00
2019-05-21T23:45:28.341Z,13.00
2019-05-21T23:48:20.523Z,12.90
2019-05-21T23:51:17.532Z,13.00
2019-05-21T23:54:03.341Z,13.00
2019-05-21T23:57:07.880Z,13.00
2019-05-21T23:59:50.882Z,13.00
